Time;durP1;ratioP1;P1;durP2;ratioP2;P2;SDS_P1;SDS_P2;PMS_P1;PMS_P2;Temp;Humidity;BMP_temperature;BMP_pressure;BME280_temperature;BME280_humidity;BME280_pressure;Samples;Min_cycle;Max_cycle;Signal;HPM_P1;HPM_P2
2023/05/18 00:03:55;;;;;;;4.40;2.23;;;;;;;12.41;47.91;98674.34;8479878;27;20276;-69
2023/05/18 00:07:58;;;;;;;3.73;2.20;;;;;;;12.41;47.11;98671.75;8480233;28;20462;-69
2023/05/18 00:12:03;;;;;;;5.70;2.40;;;;;;;12.37;47.29;98664.16;8480142;27;20244;-69
2023/05/18 00:16:07;;;;;;;6.03;2.50;;;;;;;12.20;46.96;98660.47;8480007;28;20331;-69
2023/05/18 00:20:12;;;;;;;5.63;2.57;;;;;;;12.37;46.83;98664.16;8479967;28;20226;-69
2023/05/18 00:24:15;;;;;;;4.13;2.30;;;;;;;12.32;47.08;98662.59;8479727;27;20226;-69
2023/05/18 00:28:18;;;;;;;8.17;2.40;;;;;;;12.20;47.30;98654.44;8479351;28;20223;-70
2023/05/18 00:32:21;;;;;;;6.13;2.33;;;;;;;12.06;47.44;98663.63;8479781;28;20383;-70
2023/05/18 00:36:25;;;;;;;5.57;2.73;;;;;;;12.05;47.51;98661.97;8479692;27;20230;-69
2023/05/18 00:40:29;;;;;;;6.17;2.80;;;;;;;12.00;47.40;98669.06;8479528;28;20238;-69
2023/05/18 00:44:32;;;;;;;6.13;2.40;;;;;;;11.85;47.98;98651.47;8479475;28;20290;-69
2023/05/18 00:48:35;;;;;;;4.97;2.40;;;;;;;11.75;48.24;98666.53;8479321;28;20438;-69
2023/05/18 00:52:39;;;;;;;5.30;2.37;;;;;;;11.76;47.93;98668.22;8479181;28;20234;-69
2023/05/18 00:56:45;;;;;;;6.43;2.90;;;;;;;11.67;48.04;98656.47;8479318;28;20223;-69
2023/05/18 01:00:48;;;;;;;4.33;2.77;;;;;;;11.55;48.43;98669.88;8479029;28;20296;-69
2023/05/18 01:04:51;;;;;;;9.33;2.30;;;;;;;11.59;48.27;98665.41;8479148;28;20286;-69
2023/05/18 01:08:56;;;;;;;6.40;2.43;;;;;;;11.62;48.00;98658.38;8482194;27;20239;-69
2023/05/18 01:13:03;;;;;;;4.23;2.20;;;;;;;11.71;47.68;98660.63;8485312;28;20294;-69
2023/05/18 01:17:13;;;;;;;4.93;2.37;;;;;;;11.53;47.60;98662.13;8485205;27;20219;-69
2023/05/18 01:21:25;;;;;;;4.80;2.60;;;;;;;11.50;47.90;98657.09;8484900;27;20578;-69
2023/05/18 01:25:35;;;;;;;4.70;2.33;;;;;;;11.43;48.43;98659.97;8484495;27;20515;-69
2023/05/18 01:29:40;;;;;;;6.30;2.80;;;;;;;10.84;48.20;98568.75;8484834;28;20238;-69
2023/05/18 01:33:42;;;;;;;8.87;2.73;;;;;;;11.49;48.53;98652.78;8484543;27;20252;-69
2023/05/18 01:37:45;;;;;;;10.37;3.00;;;;;;;11.38;48.67;98656.69;8484439;27;20252;-69
2023/05/18 01:41:52;;;;;;;4.93;2.70;;;;;;;10.93;48.55;98589.16;8484515;27;20230;-69
2023/05/18 01:45:57;;;;;;;5.63;2.60;;;;;;;11.23;49.37;98658.94;8484095;27;20268;-69
2023/05/18 01:50:02;;;;;;;6.93;2.60;;;;;;;11.19;49.38;98653.91;8484059;27;20244;-69
2023/05/18 01:54:07;;;;;;;8.70;3.07;;;;;;;11.18;48.79;98650.47;8483979;27;20229;-69
2023/05/18 01:58:12;;;;;;;7.23;2.80;;;;;;;11.22;49.04;98651.22;8483849;28;20235;-69
2023/05/18 02:02:16;;;;;;;6.40;2.67;;;;;;;11.24;49.19;98639.88;8483397;28;20235;-69
2023/05/18 02:06:19;;;;;;;5.40;2.93;;;;;;;11.32;48.66;98632.66;8483082;27;20246;-70
2023/05/18 02:10:22;;;;;;;6.63;2.90;;;;;;;11.35;48.65;98636.91;8483214;27;20233;-70
2023/05/18 02:14:25;;;;;;;4.57;2.87;;;;;;;11.28;48.84;98640.63;8483384;27;20274;-69
2023/05/18 02:18:32;;;;;;;8.73;2.97;;;;;;;11.26;48.78;98637.25;8483487;28;20231;-69
2023/05/18 02:22:36;;;;;;;5.60;2.70;;;;;;;11.13;49.26;98642.84;8482670;27;20311;-69
2023/05/18 02:26:40;;;;;;;7.50;3.30;;;;;;;11.19;49.32;98631.41;8483052;27;20325;-69
2023/05/18 02:30:43;;;;;;;4.73;2.87;;;;;;;11.18;49.23;98637.50;8482726;27;20302;-69
2023/05/18 02:34:49;;;;;;;7.43;3.00;;;;;;;10.91;49.07;98590.13;8482634;27;20229;-69
2023/05/18 02:38:51;;;;;;;6.07;3.43;;;;;;;11.02;49.39;98638.94;8482570;28;20231;-69
2023/05/18 02:42:54;;;;;;;5.63;2.90;;;;;;;10.94;49.41;98628.84;8482509;27;20428;-69
2023/05/18 02:46:57;;;;;;;6.57;2.77;;;;;;;10.89;49.52;98636.81;8482274;27;20228;-69
2023/05/18 02:51:01;;;;;;;8.00;2.70;;;;;;;10.91;49.41;98634.16;8482148;28;20241;-69
2023/05/18 02:55:05;;;;;;;7.80;2.93;;;;;;;10.99;49.50;98626.13;8482051;28;20282;-69
2023/05/18 02:59:07;;;;;;;5.53;2.80;;;;;;;10.98;49.43;98638.22;8481752;27;20252;-69
2023/05/18 03:03:14;;;;;;;6.60;2.43;;;;;;;10.80;49.46;98629.34;8481758;27;20243;-69
2023/05/18 03:07:19;;;;;;;3.63;2.43;;;;;;;10.61;49.32;98616.19;8472809;27;20227;-71
2023/05/18 03:11:22;;;;;;;6.00;2.50;;;;;;;10.67;49.73;98631.50;8480525;28;20549;-70
2023/05/18 03:15:25;;;;;;;6.07;2.50;;;;;;;10.70;49.33;98635.72;8481264;28;20228;-69
2023/05/18 03:19:28;;;;;;;6.77;2.30;;;;;;;10.44;49.33;98572.72;8481195;28;20253;-69
2023/05/18 03:23:32;;;;;;;6.63;2.80;;;;;;;10.73;49.53;98631.28;8480768;27;20235;-69
2023/05/18 03:27:36;;;;;;;7.80;2.60;;;;;;;10.69;49.56;98631.47;8480565;27;20232;-69
2023/05/18 03:31:39;;;;;;;7.73;2.33;;;;;;;10.64;49.61;98635.94;8479089;28;20223;-69
2023/05/18 03:35:43;;;;;;;7.30;2.83;;;;;;;10.70;49.38;98635.72;8480831;28;20225;-69
2023/05/18 03:39:49;;;;;;;7.53;2.70;;;;;;;10.56;49.55;98634.44;8480588;27;20301;-69
2023/05/18 03:43:52;;;;;;;7.13;2.80;;;;;;;10.56;49.88;98639.63;8480664;28;20467;-69
2023/05/18 03:47:55;;;;;;;5.10;2.60;;;;;;;10.61;50.08;98633.47;8480607;27;20235;-69
2023/05/18 03:51:58;;;;;;;5.80;2.50;;;;;;;10.66;49.92;98642.78;8480327;27;20591;-69
2023/05/18 03:56:02;;;;;;;7.23;2.83;;;;;;;10.69;50.04;98641.81;8480343;28;20283;-69
2023/05/18 04:00:10;;;;;;;7.20;2.80;;;;;;;10.78;49.83;98644.09;8480336;28;20539;-69
2023/05/18 04:04:16;;;;;;;5.87;2.70;;;;;;;10.69;50.05;98641.81;8480169;27;20444;-69
2023/05/18 04:08:20;;;;;;;5.80;2.70;;;;;;;10.74;50.07;98638.19;8445883;28;20312;-69
2023/05/18 04:12:24;;;;;;;5.73;2.80;;;;;;;10.72;50.01;98629.63;8446446;28;20251;-69
2023/05/18 04:16:27;;;;;;;5.33;2.67;;;;;;;10.94;49.57;98644.41;8446469;27;20298;-69
2023/05/18 04:20:30;;;;;;;7.03;2.90;;;;;;;10.82;50.06;98643.09;8446164;28;20236;-69
2023/05/18 04:24:33;;;;;;;6.27;2.67;;;;;;;10.92;49.78;98651.38;8446101;28;20278;-69
2023/05/18 04:28:37;;;;;;;8.73;2.70;;;;;;;11.02;49.89;98657.09;8446241;27;20237;-69
2023/05/18 04:32:41;;;;;;;8.53;2.87;;;;;;;10.20;49.63;98530.34;8445991;28;20232;-69
2023/05/18 04:36:45;;;;;;;7.07;2.53;;;;;;;10.53;49.68;98569.00;8446104;28;20225;-69
2023/05/18 04:40:48;;;;;;;5.80;2.47;;;;;;;11.15;49.82;98672.16;8445963;27;20229;-69
2023/05/18 04:44:53;;;;;;;6.77;2.70;;;;;;;11.28;49.34;98674.31;8450738;28;20230;-69
2023/05/18 04:48:56;;;;;;;6.73;2.43;;;;;;;11.27;49.03;98668.31;8452337;28;20431;-69
2023/05/18 04:53:01;;;;;;;7.27;2.70;;;;;;;11.34;49.54;98674.09;8451780;28;20230;-69
2023/05/18 04:57:04;;;;;;;4.60;2.10;;;;;;;11.51;49.24;98669.13;8452138;28;20230;-69
2023/05/18 05:01:08;;;;;;;6.03;2.40;;;;;;;11.68;48.92;98672.88;8451910;28;20238;-69
2023/05/18 05:05:11;;;;;;;7.17;2.53;;;;;;;11.78;48.70;98666.41;8451748;28;20232;-69
2023/05/18 05:09:14;;;;;;;5.33;2.20;;;;;;;11.78;48.66;98662.97;8451792;27;20460;-69
2023/05/18 05:13:17;;;;;;;6.27;2.57;;;;;;;11.82;48.70;98669.72;8451496;28;20243;-69
2023/05/18 05:17:22;;;;;;;6.80;2.80;;;;;;;11.90;48.88;98678.13;8476495;28;20235;-69
2023/05/18 05:21:25;;;;;;;5.67;2.50;;;;;;;12.10;48.67;98672.16;8485195;27;20235;-69
2023/05/18 05:25:28;;;;;;;5.73;2.60;;;;;;;12.12;48.08;98678.97;8484630;28;20390;-69
2023/05/18 05:29:31;;;;;;;6.70;2.53;;;;;;;12.11;48.54;98684.22;8484237;27;20420;-69
2023/05/18 05:33:36;;;;;;;8.07;2.53;;;;;;;12.21;48.19;98682.97;8484322;27;20232;-69
2023/05/18 05:37:38;;;;;;;9.40;2.63;;;;;;;12.43;47.91;98682.09;8484459;28;20223;-69
2023/05/18 05:41:41;;;;;;;7.23;2.50;;;;;;;12.40;48.02;98690.03;8484249;28;20272;-69
2023/05/18 05:45:44;;;;;;;5.57;2.20;;;;;;;12.60;47.47;98692.63;8484311;27;20242;-68
2023/05/18 05:49:48;;;;;;;5.33;2.13;;;;;;;12.51;47.60;98690.44;8484153;27;20229;-69
2023/05/18 05:53:51;;;;;;;7.00;2.50;;;;;;;12.74;47.38;98692.09;8483124;28;20223;-69
2023/05/18 05:57:54;;;;;;;5.43;2.30;;;;;;;12.99;47.05;98688.47;8483897;28;20230;-69
2023/05/18 06:01:57;;;;;;;6.07;2.23;;;;;;;13.14;46.80;98690.41;8483654;28;20539;-68
2023/05/18 06:06:01;;;;;;;4.43;2.00;;;;;;;13.11;46.40;98678.34;8483288;28;20237;-69
2023/05/18 06:10:05;;;;;;;8.43;2.70;;;;;;;13.41;45.39;98690.97;8483385;28;20493;-69
2023/05/18 06:14:07;;;;;;;7.80;2.30;;;;;;;13.63;45.37;98690.00;8483326;27;20228;-69
2023/05/18 06:18:10;;;;;;;4.10;2.00;;;;;;;13.78;45.07;98698.88;8483123;27;20235;-69
2023/05/18 06:22:16;;;;;;;8.20;2.50;;;;;;;13.87;44.93;98696.69;8483327;27;20542;-69
2023/05/18 06:26:20;;;;;;;6.93;2.40;;;;;;;14.05;44.51;98686.31;8482182;28;20231;-69
2023/05/18 06:30:23;;;;;;;4.70;2.10;;;;;;;14.33;44.03;98698.06;8482706;28;20227;-69
2023/05/18 06:34:26;;;;;;;5.10;2.23;;;;;;;13.95;43.62;98698.94;8482440;27;20238;-69
2023/05/18 06:38:31;;;;;;;6.67;2.50;;;;;;;13.03;44.39;98640.59;8482425;27;20228;-70
2023/05/18 06:42:34;;;;;;;9.93;2.40;;;;;;;13.88;44.55;98687.13;8482240;28;20233;-68
2023/05/18 06:46:37;;;;;;;8.33;2.17;;;;;;;14.93;47.97;98701.22;8482233;27;20636;-69
2023/05/18 06:50:40;;;;;;;5.67;2.20;;;;;;;14.25;42.50;98694.03;8482039;27;20256;-69
2023/05/18 06:54:44;;;;;;;6.37;2.10;;;;;;;14.39;44.00;98690.81;8481892;27;20230;-69
2023/05/18 06:58:47;;;;;;;7.87;2.57;;;;;;;14.77;43.29;98693.28;8481721;27;20236;-69
2023/05/18 07:02:50;;;;;;;7.87;2.10;;;;;;;14.53;42.34;98695.34;8481819;28;20525;-70
2023/05/18 07:06:54;;;;;;;8.67;2.80;;;;;;;15.21;42.55;98699.78;8481313;28;20248;-69
2023/05/18 07:11:01;;;;;;;6.73;2.67;;;;;;;15.39;41.58;98700.59;8481084;28;20230;-69
2023/05/18 07:15:04;;;;;;;7.33;2.70;;;;;;;15.57;41.08;98698.78;8481331;28;20222;-69
2023/05/18 07:19:07;;;;;;;9.67;2.50;;;;;;;15.71;40.27;98703.28;8480953;27;20294;-69
2023/05/18 07:23:10;;;;;;;5.07;2.00;;;;;;;14.83;40.99;98702.56;8481073;27;20226;-70
2023/05/18 07:27:14;;;;;;;7.50;2.80;;;;;;;15.33;40.11;98699.16;8480944;28;20226;-69
2023/05/18 07:31:19;;;;;;;7.87;2.27;;;;;;;15.48;40.21;98681.00;8480681;27;20242;-69
2023/05/18 07:35:24;;;;;;;6.43;2.30;;;;;;;15.83;39.82;98687.81;8446655;28;20495;-70
2023/05/18 07:39:28;;;;;;;7.60;2.33;;;;;;;16.40;37.70;98684.66;8447074;28;20235;-69
2023/05/18 07:43:32;;;;;;;7.30;2.30;;;;;;;16.02;37.78;98689.44;8446638;28;20536;-70
2023/05/18 07:47:35;;;;;;;7.90;2.40;;;;;;;15.71;37.56;98680.63;8446846;28;20240;-69
2023/05/18 07:51:38;;;;;;;10.37;2.60;;;;;;;16.57;39.26;98680.25;8446601;28;20240;-69
2023/05/18 07:55:41;;;;;;;6.97;2.40;;;;;;;16.66;37.64;98676.25;8446589;28;20221;-69
2023/05/18 07:59:45;;;;;;;8.83;2.50;;;;;;;17.33;37.75;98679.31;8446413;27;20291;-69
2023/05/18 08:03:48;;;;;;;7.17;2.43;;;;;;;16.30;36.50;98680.06;8446269;28;20228;-69
2023/05/18 08:07:51;;;;;;;8.27;2.60;;;;;;;17.11;35.54;98685.81;8446525;28;20223;-69
2023/05/18 08:11:54;;;;;;;6.17;2.20;;;;;;;17.05;34.87;98677.50;8446079;27;20559;-69
2023/05/18 08:15:58;;;;;;;4.83;2.00;;;;;;;17.32;34.84;98681.06;8446146;28;20238;-69
2023/05/18 08:20:13;;;;;;;8.23;2.37;;;;;;;16.64;34.03;98665.91;8452196;28;20238;-69
2023/05/18 08:24:16;;;;;;;6.10;2.33;;;;;;;16.41;35.13;98670.69;8453015;28;20546;-69
2023/05/18 08:28:19;;;;;;;7.10;2.80;;;;;;;16.73;34.16;98672.34;8452521;28;20222;-69
2023/05/18 08:32:24;;;;;;;6.13;2.60;;;;;;;15.89;34.08;98675.34;8452825;28;20426;-69
2023/05/18 08:36:27;;;;;;;7.60;2.20;;;;;;;16.95;33.42;98638.81;8452706;27;20436;-69
2023/05/18 08:40:34;;;;;;;6.03;2.40;;;;;;;17.13;33.17;98672.66;8452555;28;20227;-69
2023/05/18 08:44:40;;;;;;;6.73;2.37;;;;;;;18.17;33.96;98668.00;8452314;28;20233;-69
2023/05/18 08:48:46;;;;;;;6.53;2.60;;;;;;;17.97;33.37;98661.38;8452360;27;20410;-69
2023/05/18 08:52:53;;;;;;;5.33;2.30;;;;;;;17.20;33.04;98664.34;8452065;28;20238;-69
2023/05/18 08:56:57;;;;;;;9.27;2.53;;;;;;;17.10;32.88;98662.38;8451955;27;20423;-69
2023/05/18 09:01:00;;;;;;;7.97;2.50;;;;;;;17.18;33.03;98660.13;8452043;27;20593;-69
2023/05/18 09:05:06;;;;;;;6.50;2.30;;;;;;;17.69;33.38;98664.91;8451942;28;20417;-69
2023/05/18 09:09:09;;;;;;;6.73;2.30;;;;;;;16.92;33.45;98657.28;8451767;28;20226;-70
2023/05/18 09:13:12;;;;;;;7.97;2.50;;;;;;;17.14;34.21;98661.25;8451239;27;20226;-69
2023/05/18 09:17:15;;;;;;;8.60;2.47;;;;;;;16.49;33.80;98666.78;8451583;28;20230;-70
2023/05/18 09:21:19;;;;;;;8.80;2.43;;;;;;;17.94;33.64;98625.75;8476261;27;20340;-71
2023/05/18 09:25:23;;;;;;;7.00;2.20;;;;;;;18.14;32.21;98655.94;8484999;27;20229;-70
2023/05/18 09:29:26;;;;;;;5.33;2.13;;;;;;;18.06;31.47;98660.81;8483575;27;20238;-68
2023/05/18 09:33:33;;;;;;;6.97;2.30;;;;;;;17.87;30.32;98653.28;8484092;27;20233;-69
2023/05/18 09:37:41;;;;;;;5.07;2.20;;;;;;;17.64;31.34;98649.44;8484363;27;20229;-68
2023/05/18 09:41:44;;;;;;;8.27;2.47;;;;;;;17.59;30.99;98652.38;8484270;27;20284;-68
2023/05/18 09:45:48;;;;;;;8.33;2.20;;;;;;;17.88;30.58;98654.97;8483953;27;20222;-69
2023/05/18 09:49:51;;;;;;;6.17;2.30;;;;;;;17.71;31.21;98645.53;8484237;28;20239;-68
2023/05/18 09:53:57;;;;;;;6.30;2.03;;;;;;;18.72;31.04;98650.41;8483898;28;20227;-68
2023/05/18 09:58:02;;;;;;;6.60;2.03;;;;;;;18.30;30.92;98637.41;8483601;28;20223;-69
2023/05/18 10:02:07;;;;;;;8.67;2.50;;;;;;;18.23;29.19;98636.13;8483830;27;20266;-69
2023/05/18 10:06:12;;;;;;;5.90;2.40;;;;;;;18.73;29.35;98638.97;8483692;27;20272;-69
2023/05/18 10:10:19;;;;;;;7.80;2.30;;;;;;;18.59;29.62;98637.28;8483511;28;20234;-68
2023/05/18 10:14:24;;;;;;;8.27;2.40;;;;;;;19.43;28.85;98628.06;8475254;27;20246;-69
2023/05/18 10:18:28;;;;;;;9.53;4.37;;;;;;;18.56;28.75;98624.34;8483206;28;20284;-69
2023/05/18 10:22:35;;;;;;;5.23;2.23;;;;;;;19.49;29.05;98632.88;8483165;27;20439;-68
2023/05/18 10:26:41;;;;;;;6.00;1.97;;;;;;;18.05;30.74;98626.81;8483104;27;20298;-68
2023/05/18 10:30:44;;;;;;;5.77;2.20;;;;;;;18.89;30.49;98623.91;8482866;27;20215;-68
2023/05/18 10:34:47;;;;;;;5.50;2.10;;;;;;;19.31;28.78;98607.94;8482680;27;20222;-68
2023/05/18 10:38:50;;;;;;;4.80;2.23;;;;;;;18.75;28.72;98619.56;8482909;27;20286;-69
2023/05/18 10:42:56;;;;;;;5.40;2.10;;;;;;;18.94;29.44;98621.81;8481858;27;20226;-69
2023/05/18 10:46:59;;;;;;;5.93;2.30;;;;;;;19.37;29.66;98611.91;8482711;27;20234;-69
2023/05/18 10:51:05;;;;;;;6.17;1.97;;;;;;;19.06;29.99;98611.44;8482417;27;20386;-69
2023/05/18 10:55:09;;;;;;;5.50;2.10;;;;;;;19.04;29.54;98603.66;8482085;28;20544;-68
2023/05/18 10:59:14;;;;;;;4.53;1.90;;;;;;;19.71;29.79;98599.84;8481889;28;20321;-69
2023/05/18 11:03:18;;;;;;;6.23;2.57;;;;;;;19.38;28.41;98600.44;8481946;27;20227;-68
2023/05/18 11:07:21;;;;;;;4.83;2.43;;;;;;;19.81;28.68;98597.44;8473416;27;20242;-68
2023/05/18 11:11:25;;;;;;;9.60;2.63;;;;;;;20.23;27.22;98596.06;8481706;28;20413;-68
2023/05/18 11:16:01;;;;;;;7.57;2.37;;;;;;;20.44;26.78;98585.72;8481134;28;20239;-69
2023/05/18 11:20:16;;;;;;;6.87;2.67;;;;;;;22.14;26.32;98580.44;8481299;27;20223;-68
2023/05/18 11:24:24;;;;;;;5.00;2.30;;;;;;;20.19;26.40;98580.66;8447351;28;20231;-68
2023/05/18 11:28:27;;;;;;;5.00;1.87;;;;;;;20.34;27.67;98574.25;8447335;28;20282;-68
2023/05/18 11:32:32;;;;;;;5.33;2.50;;;;;;;21.34;27.80;98578.91;8447137;27;20517;-68
2023/05/18 11:36:45;;;;;;;4.83;1.93;;;;;;;22.11;34.35;98583.34;8447265;28;20235;-68
2023/05/18 11:40:49;;;;;;;5.23;2.13;;;;;;;21.03;34.65;98576.06;8446873;28;20497;-67
2023/05/18 11:44:54;;;;;;;10.40;2.40;;;;;;;21.21;27.33;98564.09;8446830;28;20230;-68
2023/05/18 11:48:57;;;;;;;4.43;2.30;;;;;;;22.59;29.60;98564.41;8446881;28;20233;-70
2023/05/18 11:53:01;;;;;;;7.83;2.40;;;;;;;21.75;26.79;98565.09;8445767;28;20479;-68
2023/05/18 11:57:04;;;;;;;5.63;2.80;;;;;;;20.71;25.91;98566.22;8446750;27;20234;-68
2023/05/18 12:01:10;;;;;;;5.33;2.30;;;;;;;21.72;25.22;98572.41;8446464;27;20238;-67
2023/05/18 12:05:14;;;;;;;7.03;2.77;;;;;;;21.11;25.56;98544.69;8446296;28;20231;-67
2023/05/18 12:09:20;;;;;;;5.00;2.30;;;;;;;21.15;25.38;98576.88;8446337;28;20234;-67
2023/05/18 12:13:24;;;;;;;5.97;2.43;;;;;;;20.35;25.53;98573.25;8445518;28;20237;-67
2023/05/18 12:17:38;;;;;;;6.27;2.67;;;;;;;19.75;25.48;98463.88;8446240;28;20231;-68
2023/05/18 12:21:41;;;;;;;5.37;2.60;;;;;;;20.54;25.95;98566.63;8446275;27;20222;-67
2023/05/18 12:25:45;;;;;;;3.87;2.60;;;;;;;20.86;26.39;98546.59;8446266;28;20230;-68
2023/05/18 12:29:50;;;;;;;4.07;2.17;;;;;;;21.92;26.60;98542.66;8446022;28;20219;-67
2023/05/18 12:33:53;;;;;;;9.37;2.50;;;;;;;22.11;27.09;98547.25;8445562;28;20239;-68
2023/05/18 12:38:01;;;;;;;4.70;2.43;;;;;;;20.87;27.31;98540.41;8446116;28;20272;-67
2023/05/18 12:42:15;;;;;;;6.63;2.00;;;;;;;21.57;26.81;98546.34;8445704;28;20287;-68
2023/05/18 12:46:18;;;;;;;4.50;2.20;;;;;;;20.99;27.71;98549.13;8445366;28;20512;-69
2023/05/18 12:50:21;;;;;;;7.13;2.03;;;;;;;21.32;27.63;98547.41;8445909;27;20237;-68
2023/05/18 12:54:28;;;;;;;3.73;1.90;;;;;;;22.44;25.66;98548.06;8445337;27;20587;-68
2023/05/18 12:58:33;;;;;;;5.00;2.30;;;;;;;22.43;26.30;98536.66;8445680;28;20293;-68
2023/05/18 13:02:37;;;;;;;6.33;2.23;;;;;;;22.58;25.89;98537.19;8445181;28;20295;-67
2023/05/18 13:06:40;;;;;;;6.37;2.57;;;;;;;22.18;24.75;98527.31;8451265;27;20239;-67
2023/05/18 13:10:43;;;;;;;4.43;2.00;;;;;;;22.03;26.52;98528.59;8451482;28;20230;-67
2023/05/18 13:14:48;;;;;;;6.63;2.50;;;;;;;21.98;25.43;98528.13;8451332;28;20228;-67
2023/05/18 13:18:56;;;;;;;5.93;2.23;;;;;;;21.86;26.48;98519.44;8451446;27;20291;-67
2023/05/18 13:22:59;;;;;;;9.00;2.50;;;;;;;21.96;26.35;98525.59;8451262;28;20408;-67
2023/05/18 13:27:02;;;;;;;4.43;2.07;;;;;;;21.85;26.51;98521.19;8451392;28;20224;-67
2023/05/18 13:31:06;;;;;;;5.13;2.20;;;;;;;22.63;25.75;98529.69;8451101;28;20231;-67
2023/05/18 13:35:12;;;;;;;5.77;2.37;;;;;;;22.25;24.15;98502.09;8450879;28;20232;-67
2023/05/18 13:39:17;;;;;;;4.00;2.27;;;;;;;22.41;24.42;98533.31;8450822;27;20295;-68
2023/05/18 13:43:21;;;;;;;4.87;2.40;;;;;;;22.20;25.29;98519.25;8450327;28;20227;-68
2023/05/18 13:47:26;;;;;;;4.17;2.20;;;;;;;21.09;26.64;98510.59;8450180;28;20322;-68
2023/05/18 13:51:32;;;;;;;5.67;2.53;;;;;;;22.30;26.96;98516.72;8450187;28;20292;-68
2023/05/18 13:55:35;;;;;;;4.87;1.90;;;;;;;21.99;26.53;98500.78;8450298;28;20257;-68
2023/05/18 13:59:38;;;;;;;5.77;2.17;;;;;;;22.04;26.37;98507.34;8450138;28;20272;-67
2023/05/18 14:03:43;;;;;;;4.40;2.07;;;;;;;22.25;25.05;98503.91;8449386;28;20227;-67
2023/05/18 14:07:46;;;;;;;4.47;2.20;;;;;;;22.04;26.15;98502.06;8449400;28;20224;-68
2023/05/18 14:11:49;;;;;;;6.20;2.50;;;;;;;21.22;25.08;98505.19;8448574;27;20562;-67
2023/05/18 14:15:55;;;;;;;6.53;2.10;;;;;;;21.85;25.95;98492.19;8448175;28;20298;-67
2023/05/18 14:20:01;;;;;;;5.25;2.50;;;;;;;22.10;24.48;98491.97;8446602;28;20490;-68
2023/05/18 14:24:09;;;;;;;7.50;2.40;;;;;;;20.72;26.77;98493.38;8448699;27;20287;-69
2023/05/18 14:28:13;;;;;;;5.73;2.50;;;;;;;19.88;26.24;98488.28;8448148;28;20228;-69
2023/05/18 14:32:16;;;;;;;4.70;2.13;;;;;;;20.64;25.51;98489.53;8448208;28;20452;-69
2023/05/18 14:36:23;;;;;;;5.37;2.30;;;;;;;21.23;24.52;98496.34;8447860;27;20382;-70
2023/05/18 14:40:29;;;;;;;4.97;2.20;;;;;;;21.82;26.18;98487.19;8448143;27;20268;-69
2023/05/18 14:44:34;;;;;;;5.73;2.00;;;;;;;22.00;25.52;98474.28;8448023;28;20231;-69
2023/05/18 14:48:37;;;;;;;6.40;2.47;;;;;;;20.64;26.22;98480.81;8447486;28;20250;-69
2023/05/18 14:52:45;;;;;;;4.37;2.40;;;;;;;20.03;26.20;98478.38;8447623;27;20238;-69
2023/05/18 14:56:49;;;;;;;4.33;2.37;;;;;;;20.27;26.19;98480.97;8446207;27;20219;-70
2023/05/18 15:00:53;;;;;;;4.33;1.80;;;;;;;19.55;26.02;98466.13;8447529;28;20237;-69
2023/05/18 15:04:56;;;;;;;4.23;2.10;;;;;;;19.87;25.55;98468.19;8447020;28;20308;-69
2023/05/18 15:09:00;;;;;;;3.33;2.00;;;;;;;20.40;26.12;98470.34;8447461;27;20487;-69
2023/05/18 15:13:03;;;;;;;5.53;2.20;;;;;;;21.03;25.05;98444.41;8446917;28;20246;-69
2023/05/18 15:17:07;;;;;;;4.77;2.00;;;;;;;20.15;25.30;98479.28;8446967;28;20471;-69
2023/05/18 15:21:10;;;;;;;5.07;1.77;;;;;;;20.22;25.90;98467.31;8446863;28;20230;-69
2023/05/18 15:25:14;;;;;;;4.93;1.90;;;;;;;20.40;26.32;98458.03;8446815;28;20525;-69
2023/05/18 15:29:18;;;;;;;3.63;2.07;;;;;;;19.79;26.86;98454.81;8446443;28;20247;-69
2023/05/18 15:33:23;;;;;;;5.87;2.00;;;;;;;19.71;26.48;98458.78;8445965;28;20230;-70
2023/05/18 15:37:25;;;;;;;6.87;2.07;;;;;;;19.81;26.04;98466.88;8446473;28;20230;-70
2023/05/18 15:41:32;;;;;;;6.50;2.07;;;;;;;20.14;26.14;98464.44;8446412;28;20229;-70
2023/05/18 15:45:35;;;;;;;4.40;2.13;;;;;;;19.95;25.69;98465.81;8445955;27;20239;-70
2023/05/18 15:49:38;;;;;;;4.77;1.70;;;;;;;19.34;24.91;98461.50;8445846;28;20257;-70
2023/05/18 15:53:42;;;;;;;5.90;2.00;;;;;;;20.07;24.82;98457.03;8445712;27;20233;-70
2023/05/18 15:57:46;;;;;;;3.47;1.70;;;;;;;19.69;24.89;98459.88;8445742;28;20235;-70
2023/05/18 16:01:49;;;;;;;4.83;1.97;;;;;;;20.17;24.08;98462.44;8445795;28;20510;-69
2023/05/18 16:05:51;;;;;;;4.63;2.00;;;;;;;19.58;24.16;98444.06;8445514;28;20234;-69
2023/05/18 16:09:54;;;;;;;4.07;2.50;;;;;;;19.64;24.71;98444.44;8445524;27;20225;-71
2023/05/18 16:13:59;;;;;;;3.90;1.80;;;;;;;20.17;24.07;98437.94;8445453;27;20227;-70
2023/05/18 16:18:02;;;;;;;2.67;1.70;;;;;;;19.97;24.66;98439.44;8445285;28;20232;-69
2023/05/18 16:22:07;;;;;;;5.40;1.80;;;;;;;19.28;25.60;98438.28;8445079;28;20287;-70
2023/05/18 16:26:11;;;;;;;4.17;1.93;;;;;;;19.56;25.92;98441.53;8445095;27;20236;-69
2023/05/18 16:30:16;;;;;;;5.67;2.10;;;;;;;19.25;26.63;98438.53;8445050;27;20244;-70
2023/05/18 16:34:18;;;;;;;4.67;2.13;;;;;;;19.12;27.15;98443.00;8469798;28;20227;-71
2023/05/18 16:38:21;;;;;;;8.73;2.90;;;;;;;19.13;26.35;98448.13;8479428;28;20230;-70
2023/05/18 16:42:24;;;;;;;4.40;1.77;;;;;;;18.79;26.81;98431.31;8485615;28;20508;-70
2023/05/18 16:46:28;;;;;;;2.50;1.83;;;;;;;18.95;26.83;98447.66;8485694;27;20242;-69
2023/05/18 16:50:32;;;;;;;3.83;1.57;;;;;;;18.89;27.04;98448.09;8485275;27;20243;-70
2023/05/18 16:54:35;;;;;;;4.80;1.80;;;;;;;18.95;27.44;98444.19;8485176;27;20255;-69
2023/05/18 16:58:38;;;;;;;6.23;1.77;;;;;;;18.78;27.74;98449.78;8485035;28;20230;-69
2023/05/18 17:02:42;;;;;;;4.63;1.97;;;;;;;18.56;28.04;98452.13;8485078;27;20315;-69
2023/05/18 17:06:45;;;;;;;5.27;2.07;;;;;;;18.69;27.92;98453.88;8484835;27;20241;-70
2023/05/18 17:10:48;;;;;;;5.77;2.30;;;;;;;18.59;28.46;98460.72;8485053;28;20223;-70
2023/05/18 17:14:51;;;;;;;4.03;1.87;;;;;;;18.60;27.29;98451.88;8485125;27;20514;-70
2023/05/18 17:18:56;;;;;;;4.17;1.60;;;;;;;18.49;27.93;98463.97;8484917;27;20248;-70
2023/05/18 17:22:59;;;;;;;5.07;1.90;;;;;;;18.15;27.90;98463.63;8484784;27;20223;-70
2023/05/18 17:27:07;;;;;;;5.93;1.90;;;;;;;17.91;28.00;98457.41;8484188;27;20231;-70
2023/05/18 17:31:10;;;;;;;4.07;1.70;;;;;;;17.92;26.98;98459.09;8484141;28;20269;-70
2023/05/18 17:35:15;;;;;;;4.47;2.67;;;;;;;18.15;26.85;98457.56;8484061;27;20238;-70
2023/05/18 17:39:18;;;;;;;2.77;1.70;;;;;;;18.16;27.03;98457.47;8475359;28;20230;-70
2023/05/18 17:43:21;;;;;;;4.53;2.07;;;;;;;17.78;27.14;98447.72;8483358;27;20453;-70
2023/05/18 17:47:24;;;;;;;3.20;1.93;;;;;;;18.03;29.60;98474.09;8483727;27;20433;-70
2023/05/18 17:51:28;;;;;;;9.60;4.97;;;;;;;17.79;33.03;98475.59;8482531;28;20237;-70
2023/05/18 17:55:31;;;;;;;4.87;2.00;;;;;;;18.03;33.60;98480.19;8483183;28;20233;-70
2023/05/18 17:59:35;;;;;;;4.13;2.00;;;;;;;18.18;33.81;98486.16;8482841;27;20376;-69
2023/05/18 18:03:39;;;;;;;4.20;1.70;;;;;;;18.02;34.37;98480.28;8483190;27;20233;-70
2023/05/18 18:07:43;;;;;;;7.23;4.93;;;;;;;17.88;34.87;98486.47;8482925;28;20234;-70
2023/05/18 18:11:46;;;;;;;5.03;2.10;;;;;;;17.98;35.22;98490.13;8482843;27;20531;-70
2023/05/18 18:15:49;;;;;;;8.33;4.03;;;;;;;17.50;35.56;98487.97;8482908;27;20231;-70
2023/05/18 18:19:51;;;;;;;6.00;3.13;;;;;;;17.46;35.89;98478.66;8482862;28;20563;-71
2023/05/18 18:23:56;;;;;;;5.87;2.60;;;;;;;17.68;36.34;98490.34;8482368;28;20569;-71
2023/05/18 18:27:59;;;;;;;9.37;4.37;;;;;;;17.18;36.21;98480.38;8482088;27;20295;-70
2023/05/18 18:32:01;;;;;;;6.63;2.90;;;;;;;17.44;36.30;98498.84;8482288;27;20227;-71
2023/05/18 18:36:06;;;;;;;7.67;2.90;;;;;;;17.30;36.68;98506.72;8481719;28;20261;-71
2023/05/18 18:40:10;;;;;;;4.27;2.67;;;;;;;17.33;36.83;98506.53;8482063;28;20222;-71
2023/05/18 18:44:13;;;;;;;6.05;2.53;;;;;;;17.95;35.72;98509.53;8480416;27;20416;-71
2023/05/18 18:48:19;;;;;;;4.60;1.93;;;;;;;17.44;36.84;98511.94;8481918;27;20300;-70
2023/05/18 18:52:22;;;;;;;6.40;2.17;;;;;;;17.33;37.00;98517.00;8447278;28;20304;-70
2023/05/18 18:56:27;;;;;;;6.13;1.90;;;;;;;17.20;37.19;98524.78;8447428;27;20228;-71
2023/05/18 19:00:30;;;;;;;5.50;1.80;;;;;;;17.15;37.36;98529.47;8447339;28;20431;-70
2023/05/18 19:04:33;;;;;;;4.23;1.57;;;;;;;17.05;37.40;98523.97;8447651;28;20234;-71
2023/05/18 19:08:36;;;;;;;4.23;2.10;;;;;;;17.15;37.66;98525.09;8447206;27;20228;-70
2023/05/18 19:12:42;;;;;;;4.67;1.97;;;;;;;17.13;38.10;98531.34;8447044;28;20219;-71